createdAt,value
2024-02-16T00:00:22.488Z,84.94
2024-02-16T00:05:19.401Z,85.00
2024-02-16T00:10:19.373Z,84.93
2024-02-16T00:15:16.294Z,84.61
2024-02-16T00:20:15.374Z,84.44
2024-02-16T00:25:12.595Z,84.60
2024-02-16T00:30:11.360Z,84.35
2024-02-16T00:35:08.112Z,84.30
2024-02-16T00:40:06.163Z,84.38
2024-02-16T00:45:02.739Z,84.84
2024-02-16T00:49:59.955Z,84.88
2024-02-16T00:54:56.825Z,84.97
2024-02-16T00:59:53.439Z,84.86
2024-02-16T01:04:51.713Z,84.61
2024-02-16T01:09:49.713Z,84.64
2024-02-16T01:19:57.838Z,84.02
2024-02-16T01:24:54.681Z,84.17
2024-02-16T01:29:51.212Z,84.05
2024-02-16T01:34:51.037Z,84.37
2024-02-16T01:39:48.699Z,84.07
2024-02-16T01:44:45.639Z,83.86
2024-02-16T01:49:42.401Z,84.26
2024-02-16T01:54:39.458Z,84.18
2024-02-16T01:59:38.329Z,84.33
2024-02-16T02:04:37.728Z,84.20
2024-02-16T02:09:36.877Z,84.31
2024-02-16T02:14:33.428Z,84.33
2024-02-16T02:19:33.311Z,84.47
2024-02-16T02:24:30.139Z,84.33
2024-02-16T02:29:27.143Z,84.31
2024-02-16T02:34:26.358Z,84.31
2024-02-16T02:39:23.096Z,84.46
2024-02-16T02:44:23.413Z,84.08
2024-02-16T02:49:20.587Z,84.43
2024-02-16T02:54:17.334Z,84.28
2024-02-16T02:59:14.124Z,84.51
2024-02-16T03:04:11.060Z,84.41
2024-02-16T03:09:07.992Z,83.91
2024-02-16T03:14:07.082Z,84.28
2024-02-16T03:19:07.376Z,84.04
2024-02-16T03:24:05.481Z,84.03
2024-02-16T03:29:02.480Z,84.31
2024-02-16T03:34:04.449Z,84.24
2024-02-16T03:39:01.134Z,83.97
2024-02-16T03:44:01.362Z,84.27
2024-02-16T03:48:58.172Z,84.36
2024-02-16T03:53:55.411Z,84.10
2024-02-16T03:58:51.971Z,83.84
2024-02-16T04:03:53.131Z,84.25
2024-02-16T04:08:50.514Z,83.96
2024-02-16T04:13:47.589Z,84.00
2024-02-16T04:18:44.424Z,84.20
2024-02-16T04:23:41.505Z,84.12
2024-02-16T04:28:38.040Z,83.67
2024-02-16T04:33:35.072Z,84.23
2024-02-16T04:38:31.825Z,83.79
2024-02-16T04:43:28.194Z,83.93
2024-02-16T04:48:24.890Z,83.51
2024-02-16T04:53:21.577Z,83.85
2024-02-16T04:58:18.443Z,83.69
2024-02-16T05:03:19.609Z,83.85
2024-02-16T05:08:16.486Z,83.48
2024-02-16T05:13:15.407Z,83.64
2024-02-16T05:18:14.227Z,83.52
2024-02-16T05:23:11.674Z,83.12
2024-02-16T05:28:08.606Z,83.52
2024-02-16T05:34:02.545Z,82.98
2024-02-16T06:15:18.489Z,82.45
2024-02-16T09:13:52.693Z,79.53
2024-02-16T09:18:49.779Z,79.50
2024-02-16T09:23:46.420Z,79.90
2024-02-16T09:28:42.800Z,79.81
2024-02-16T09:44:12.305Z,79.22
2024-02-16T09:49:11.618Z,79.04
2024-02-16T10:00:21.501Z,78.89
2024-02-16T10:05:20.432Z,79.00
2024-02-16T10:10:28.440Z,78.81
2024-02-16T10:15:42.293Z,78.79
2024-02-16T10:20:39.823Z,78.63
2024-02-16T10:25:37.859Z,78.50
2024-02-16T10:30:39.875Z,78.14
2024-02-16T10:35:40.264Z,78.06
2024-02-16T10:40:41.218Z,77.95
2024-02-16T10:45:39.211Z,77.44
2024-02-16T10:50:36.863Z,77.13
2024-02-16T11:39:57.452Z,74.64
2024-02-16T11:45:00.122Z,73.79
2024-02-16T11:55:18.701Z,73.51
2024-02-16T12:00:16.837Z,72.72
2024-02-16T12:05:36.746Z,72.56
2024-02-16T12:16:11.857Z,71.91
2024-02-16T12:21:08.581Z,72.44
2024-02-16T12:26:06.975Z,72.01
2024-02-16T12:31:29.022Z,71.57
2024-02-16T12:36:25.642Z,71.95
2024-02-16T13:07:43.168Z,71.54
2024-02-16T13:12:40.150Z,71.38
2024-02-16T13:17:37.757Z,71.02
2024-02-16T13:22:35.260Z,71.25
2024-02-16T13:27:53.024Z,70.76
2024-02-16T13:33:00.914Z,71.20
2024-02-16T13:37:57.550Z,70.72
2024-02-16T13:42:56.587Z,71.22
2024-02-16T13:48:00.654Z,71.12
2024-02-16T13:52:58.526Z,71.26
2024-02-16T13:58:00.817Z,71.54
2024-02-16T14:02:57.513Z,71.18
2024-02-16T14:08:00.333Z,71.06
2024-02-16T14:28:39.654Z,71.30
2024-02-16T14:34:35.138Z,71.15
2024-02-16T14:39:31.753Z,71.08
2024-02-16T14:44:28.822Z,71.24
2024-02-16T14:49:27.741Z,71.34
2024-02-16T14:59:37.855Z,72.04
2024-02-16T15:04:35.326Z,71.94
2024-02-16T15:09:32.561Z,72.61
2024-02-16T15:14:29.674Z,72.52
2024-02-16T15:19:27.336Z,73.13
2024-02-16T15:24:24.752Z,73.33
2024-02-16T15:29:21.767Z,73.44
2024-02-16T15:34:18.698Z,74.06
2024-02-16T15:39:51.227Z,74.48
2024-02-16T15:44:55.059Z,74.45
2024-02-16T15:49:52.316Z,74.88
2024-02-16T15:54:49.626Z,75.24
2024-02-16T15:59:47.036Z,75.20
2024-02-16T16:04:46.276Z,75.09
2024-02-16T16:09:44.288Z,75.20
2024-02-16T16:14:41.073Z,75.50
2024-02-16T16:19:38.146Z,75.43
2024-02-16T16:29:46.204Z,75.87
2024-02-16T16:34:43.159Z,76.23
2024-02-16T16:39:40.477Z,76.20
2024-02-16T16:44:37.164Z,76.85
2024-02-16T16:49:34.209Z,77.19
2024-02-16T16:54:31.432Z,77.49
2024-02-16T16:59:28.161Z,77.71
2024-02-16T17:15:42.908Z,78.23
2024-02-16T17:20:41.696Z,78.18
2024-02-16T17:25:38.418Z,78.92
2024-02-16T17:41:10.219Z,79.04
2024-02-16T17:46:07.323Z,79.04
2024-02-16T17:51:04.754Z,79.46
2024-02-16T17:56:01.335Z,79.67
2024-02-16T18:00:57.834Z,79.25
2024-02-16T18:05:57.926Z,79.40
2024-02-16T18:16:06.309Z,79.54
2024-02-16T18:25:59.370Z,79.68
2024-02-16T18:30:55.973Z,79.44
2024-02-16T18:51:32.079Z,79.43
2024-02-16T19:06:58.153Z,78.96
2024-02-16T19:16:56.437Z,79.02
2024-02-16T19:21:55.592Z,78.66
2024-02-16T19:26:52.305Z,78.45
2024-02-16T19:31:49.857Z,78.28
2024-02-16T19:36:48.703Z,78.64
2024-02-16T19:46:58.926Z,78.52
2024-02-16T19:51:57.291Z,78.63
2024-02-16T19:56:53.969Z,78.55
2024-02-16T20:01:52.677Z,78.70
2024-02-16T20:12:01.804Z,78.20
2024-02-16T20:16:58.518Z,78.26
2024-02-16T20:27:03.878Z,78.36
2024-02-16T20:32:00.836Z,78.32
2024-02-16T20:36:58.271Z,78.52
2024-02-16T20:41:56.069Z,78.06
2024-02-16T20:52:38.990Z,78.26
2024-02-16T20:57:37.930Z,78.59
2024-02-16T21:02:35.729Z,78.13
2024-02-16T21:07:32.332Z,78.88
2024-02-16T21:12:29.944Z,78.68
2024-02-16T21:22:38.034Z,78.41
2024-02-16T21:43:13.179Z,78.60
